sensor_id;sensor_type;location;lat;lon;timestamp;pressure;altitude;pressure_sealevel;temperature;humidity
82035;BME280;71599;49.892;18.914;2023-07-24T00:02:21;98086.00;;;22.73;44.86
82035;BME280;71599;49.892;18.914;2023-07-24T00:07:22;98088.16;;;22.69;45.86
82035;BME280;71599;49.892;18.914;2023-07-24T00:12:23;98081.47;;;22.66;45.96
82035;BME280;71599;49.892;18.914;2023-07-24T00:17:25;98088.06;;;22.50;48.30
82035;BME280;71599;49.892;18.914;2023-07-24T00:22:26;98088.31;;;22.43;47.72
82035;BME280;71599;49.892;18.914;2023-07-24T00:27:27;98077.59;;;22.33;47.96
82035;BME280;71599;49.892;18.914;2023-07-24T00:32:29;98065.34;;;22.30;49.42
82035;BME280;71599;49.892;18.914;2023-07-24T00:37:30;98064.72;;;22.26;49.12
82035;BME280;71599;49.892;18.914;2023-07-24T00:42:31;98050.16;;;22.22;48.78
82035;BME280;71599;49.892;18.914;2023-07-24T00:47:34;98052.66;;;22.29;49.28
82035;BME280;71599;49.892;18.914;2023-07-24T00:52:35;98051.78;;;22.32;48.98
82035;BME280;71599;49.892;18.914;2023-07-24T00:57:36;98053.13;;;22.27;50.13
82035;BME280;71599;49.892;18.914;2023-07-24T01:02:38;98048.06;;;22.35;49.59
82035;BME280;71599;49.892;18.914;2023-07-24T01:07:40;98054.59;;;22.41;48.63
82035;BME280;71599;49.892;18.914;2023-07-24T01:12:48;98064.16;;;22.40;50.97
82035;BME280;71599;49.892;18.914;2023-07-24T01:17:55;98063.28;;;22.43;50.00
82035;BME280;71599;49.892;18.914;2023-07-24T01:23:14;98067.25;;;22.33;51.56
82035;BME280;71599;49.892;18.914;2023-07-24T01:28:23;98077.78;;;22.38;50.63
82035;BME280;71599;49.892;18.914;2023-07-24T01:33:24;98078.56;;;22.39;49.86
82035;BME280;71599;49.892;18.914;2023-07-24T01:38:26;98075.13;;;22.35;50.51
82035;BME280;71599;49.892;18.914;2023-07-24T01:43:29;98072.16;;;22.29;51.62
82035;BME280;71599;49.892;18.914;2023-07-24T01:48:30;98066.59;;;22.29;50.73
82035;BME280;71599;49.892;18.914;2023-07-24T01:53:31;98063.81;;;22.29;50.98
82035;BME280;71599;49.892;18.914;2023-07-24T01:58:33;98068.84;;;22.21;52.41
82035;BME280;71599;49.892;18.914;2023-07-24T02:03:34;98064.00;;;22.13;52.44
82035;BME280;71599;49.892;18.914;2023-07-24T02:08:35;98052.50;;;22.02;52.78
82035;BME280;71599;49.892;18.914;2023-07-24T02:13:38;98053.13;;;21.84;53.80
82035;BME280;71599;49.892;18.914;2023-07-24T02:18:40;98049.56;;;21.83;53.22
82035;BME280;71599;49.892;18.914;2023-07-24T02:23:42;98049.09;;;21.85;53.80
82035;BME280;71599;49.892;18.914;2023-07-24T02:28:44;98044.47;;;21.82;53.72
82035;BME280;71599;49.892;18.914;2023-07-24T02:33:45;98045.28;;;21.70;54.14
82035;BME280;71599;49.892;18.914;2023-07-24T02:38:46;98042.13;;;21.59;54.64
82035;BME280;71599;49.892;18.914;2023-07-24T02:43:48;98051.81;;;21.54;54.01
82035;BME280;71599;49.892;18.914;2023-07-24T02:48:49;98048.50;;;21.47;55.26
82035;BME280;71599;49.892;18.914;2023-07-24T02:53:50;98042.81;;;21.37;54.64
82035;BME280;71599;49.892;18.914;2023-07-24T02:58:52;98051.53;;;21.27;55.19
82035;BME280;71599;49.892;18.914;2023-07-24T03:03:53;98036.78;;;21.17;55.87
82035;BME280;71599;49.892;18.914;2023-07-24T03:08:54;98044.44;;;21.13;55.82
82035;BME280;71599;49.892;18.914;2023-07-24T03:13:56;98052.97;;;21.19;55.44
82035;BME280;71599;49.892;18.914;2023-07-24T03:18:57;98050.31;;;21.15;55.45
82035;BME280;71599;49.892;18.914;2023-07-24T03:23:58;98046.91;;;21.11;55.20
82035;BME280;71599;49.892;18.914;2023-07-24T03:29:01;98044.88;;;21.12;56.06
82035;BME280;71599;49.892;18.914;2023-07-24T03:34:02;98051.34;;;21.09;56.13
82035;BME280;71599;49.892;18.914;2023-07-24T03:39:03;98049.22;;;21.13;55.99
82035;BME280;71599;49.892;18.914;2023-07-24T03:44:05;98050.44;;;21.12;56.50
82035;BME280;71599;49.892;18.914;2023-07-24T03:49:06;98058.44;;;21.10;56.86
82035;BME280;71599;49.892;18.914;2023-07-24T03:54:07;98048.13;;;21.10;57.17
82035;BME280;71599;49.892;18.914;2023-07-24T03:59:09;98039.78;;;21.10;57.74
82035;BME280;71599;49.892;18.914;2023-07-24T04:04:10;98034.88;;;21.14;58.44
82035;BME280;71599;49.892;18.914;2023-07-24T04:09:11;98040.16;;;21.47;58.60
82035;BME280;71599;49.892;18.914;2023-07-24T04:14:14;98047.63;;;21.93;57.51
82035;BME280;71599;49.892;18.914;2023-07-24T04:19:15;98052.47;;;22.45;55.96
82035;BME280;71599;49.892;18.914;2023-07-24T04:24:16;98043.59;;;22.69;55.88
82035;BME280;71599;49.892;18.914;2023-07-24T04:29:18;98055.22;;;23.16;55.14
82035;BME280;71599;49.892;18.914;2023-07-24T04:34:19;98051.75;;;23.61;53.14
82035;BME280;71599;49.892;18.914;2023-07-24T04:39:20;98057.44;;;24.21;51.55
82035;BME280;71599;49.892;18.914;2023-07-24T04:44:22;98052.63;;;24.73;50.88
82035;BME280;71599;49.892;18.914;2023-07-24T04:49:23;98051.47;;;25.22;49.87
82035;BME280;71599;49.892;18.914;2023-07-24T04:54:24;98060.16;;;25.48;48.70
82035;BME280;71599;49.892;18.914;2023-07-24T04:59:27;98054.22;;;25.07;50.10
82035;BME280;71599;49.892;18.914;2023-07-24T05:04:28;98055.03;;;25.46;48.69
82035;BME280;71599;49.892;18.914;2023-07-24T05:09:28;98054.56;;;26.24;47.52
82035;BME280;71599;49.892;18.914;2023-07-24T05:14:31;98059.75;;;26.90;45.87
82035;BME280;71599;49.892;18.914;2023-07-24T05:19:32;98060.53;;;27.87;43.74
82035;BME280;71599;49.892;18.914;2023-07-24T05:24:33;98062.09;;;28.39;42.84
82035;BME280;71599;49.892;18.914;2023-07-24T05:29:35;98046.53;;;28.70;41.42
82035;BME280;71599;49.892;18.914;2023-07-24T05:34:36;98037.25;;;29.37;40.91
82035;BME280;71599;49.892;18.914;2023-07-24T05:39:37;98038.91;;;29.61;39.09
82035;BME280;71599;49.892;18.914;2023-07-24T05:44:40;98049.09;;;30.23;38.04
82035;BME280;71599;49.892;18.914;2023-07-24T05:49:40;98049.59;;;30.33;39.53
82035;BME280;71599;49.892;18.914;2023-07-24T05:54:41;98056.25;;;31.13;36.83
82035;BME280;71599;49.892;18.914;2023-07-24T05:59:44;98061.59;;;31.39;35.24
82035;BME280;71599;49.892;18.914;2023-07-24T06:04:45;98060.03;;;31.43;35.86
82035;BME280;71599;49.892;18.914;2023-07-24T06:09:46;98044.56;;;31.61;35.80
82035;BME280;71599;49.892;18.914;2023-07-24T06:14:48;98062.59;;;31.53;35.80
82035;BME280;71599;49.892;18.914;2023-07-24T06:19:49;98046.22;;;31.40;35.64
82035;BME280;71599;49.892;18.914;2023-07-24T06:24:50;98045.75;;;31.08;36.05
82035;BME280;71599;49.892;18.914;2023-07-24T06:29:53;98038.75;;;31.37;35.90
82035;BME280;71599;49.892;18.914;2023-07-24T06:34:54;98047.81;;;31.88;34.55
82035;BME280;71599;49.892;18.914;2023-07-24T06:39:54;98041.03;;;32.07;34.37
82035;BME280;71599;49.892;18.914;2023-07-24T06:44:57;98042.25;;;32.17;33.64
82035;BME280;71599;49.892;18.914;2023-07-24T06:49:58;98032.78;;;32.50;33.87
82035;BME280;71599;49.892;18.914;2023-07-24T06:54:59;98034.34;;;33.06;32.63
82035;BME280;71599;49.892;18.914;2023-07-24T07:00:01;98036.75;;;31.95;31.85
82035;BME280;71599;49.892;18.914;2023-07-24T07:05:03;98027.84;;;31.74;33.42
82035;BME280;71599;49.892;18.914;2023-07-24T07:10:05;98024.75;;;32.54;32.93
82035;BME280;71599;49.892;18.914;2023-07-24T07:15:08;98008.38;;;32.77;30.75
82035;BME280;71599;49.892;18.914;2023-07-24T07:20:10;98005.09;;;32.73;31.27
82035;BME280;71599;49.892;18.914;2023-07-24T07:25:11;98003.44;;;32.53;31.28
82035;BME280;71599;49.892;18.914;2023-07-24T07:30:13;98006.66;;;33.23;30.91
82035;BME280;71599;49.892;18.914;2023-07-24T07:35:14;97987.38;;;33.40;31.93
82035;BME280;71599;49.892;18.914;2023-07-24T07:40:15;98003.63;;;32.31;30.64
82035;BME280;71599;49.892;18.914;2023-07-24T07:45:17;98007.22;;;32.32;30.69
82035;BME280;71599;49.892;18.914;2023-07-24T07:50:18;98005.44;;;31.30;32.76
82035;BME280;71599;49.892;18.914;2023-07-24T07:55:19;98007.09;;;30.81;33.46
82035;BME280;71599;49.892;18.914;2023-07-24T08:00:22;97988.63;;;30.74;34.57
82035;BME280;71599;49.892;18.914;2023-07-24T08:05:23;97984.00;;;30.21;34.51
82035;BME280;71599;49.892;18.914;2023-07-24T08:10:24;97989.00;;;29.61;34.77
82035;BME280;71599;49.892;18.914;2023-07-24T08:15:26;97984.53;;;30.36;34.69
82035;BME280;71599;49.892;18.914;2023-07-24T08:20:27;97974.47;;;30.96;31.15
82035;BME280;71599;49.892;18.914;2023-07-24T08:25:28;97989.72;;;31.46;31.99
82035;BME280;71599;49.892;18.914;2023-07-24T08:30:31;97985.06;;;30.68;33.02
82035;BME280;71599;49.892;18.914;2023-07-24T08:35:32;97962.72;;;30.09;33.38
82035;BME280;71599;49.892;18.914;2023-07-24T08:40:33;97970.44;;;30.25;32.63
82035;BME280;71599;49.892;18.914;2023-07-24T08:45:37;97971.47;;;30.55;30.81
82035;BME280;71599;49.892;18.914;2023-07-24T08:50:38;97986.56;;;30.58;32.03
82035;BME280;71599;49.892;18.914;2023-07-24T08:55:39;97979.81;;;29.66;30.78
82035;BME280;71599;49.892;18.914;2023-07-24T09:00:43;97961.31;;;29.54;30.84
82035;BME280;71599;49.892;18.914;2023-07-24T09:05:44;97979.84;;;29.13;32.11
82035;BME280;71599;49.892;18.914;2023-07-24T09:10:50;97980.75;;;28.98;31.67
82035;BME280;71599;49.892;18.914;2023-07-24T09:15:52;97971.75;;;28.83;34.07
82035;BME280;71599;49.892;18.914;2023-07-24T09:20:53;97953.06;;;28.43;35.04
82035;BME280;71599;49.892;18.914;2023-07-24T09:25:54;97937.94;;;28.04;36.06
82035;BME280;71599;49.892;18.914;2023-07-24T09:30:58;97918.94;;;27.01;35.90
82035;BME280;71599;49.892;18.914;2023-07-24T09:35:59;97916.97;;;27.07;36.62
82035;BME280;71599;49.892;18.914;2023-07-24T09:41:02;97924.63;;;27.27;37.63
82035;BME280;71599;49.892;18.914;2023-07-24T09:46:06;97911.97;;;27.57;35.41
82035;BME280;71599;49.892;18.914;2023-07-24T09:51:10;97907.56;;;27.51;35.00
82035;BME280;71599;49.892;18.914;2023-07-24T09:56:13;97899.38;;;27.53;35.93
82035;BME280;71599;49.892;18.914;2023-07-24T10:01:16;97875.69;;;27.08;36.27
82035;BME280;71599;49.892;18.914;2023-07-24T10:06:18;97869.13;;;26.55;37.79
82035;BME280;71599;49.892;18.914;2023-07-24T10:11:20;97879.75;;;26.66;36.81
82035;BME280;71599;49.892;18.914;2023-07-24T10:16:23;97875.66;;;26.67;37.94
82035;BME280;71599;49.892;18.914;2023-07-24T10:21:27;97883.75;;;26.80;38.28
82035;BME280;71599;49.892;18.914;2023-07-24T10:26:28;97884.16;;;27.13;38.86
82035;BME280;71599;49.892;18.914;2023-07-24T10:31:30;97879.88;;;27.64;38.06
82035;BME280;71599;49.892;18.914;2023-07-24T10:36:34;97873.91;;;28.13;37.00
82035;BME280;71599;49.892;18.914;2023-07-24T10:41:36;97863.09;;;28.38;36.11
82035;BME280;71599;49.892;18.914;2023-07-24T10:46:40;97865.69;;;28.47;37.89
82035;BME280;71599;49.892;18.914;2023-07-24T10:51:44;97856.88;;;29.35;34.86
82035;BME280;71599;49.892;18.914;2023-07-24T10:56:45;97862.06;;;30.09;33.75
82035;BME280;71599;49.892;18.914;2023-07-24T11:01:48;97838.78;;;31.00;31.84
82035;BME280;71599;49.892;18.914;2023-07-24T11:06:52;97839.00;;;31.54;30.41
82035;BME280;71599;49.892;18.914;2023-07-24T11:11:53;97826.22;;;30.95;32.12
82035;BME280;71599;49.892;18.914;2023-07-24T11:16:55;97822.47;;;30.76;31.12
82035;BME280;71599;49.892;18.914;2023-07-24T11:21:57;97804.78;;;30.76;32.04
82035;BME280;71599;49.892;18.914;2023-07-24T11:26:58;97802.66;;;31.75;30.29
82035;BME280;71599;49.892;18.914;2023-07-24T11:32:00;97797.63;;;31.57;29.66
82035;BME280;71599;49.892;18.914;2023-07-24T11:37:01;97781.72;;;31.24;30.50
82035;BME280;71599;49.892;18.914;2023-07-24T11:42:02;97768.88;;;30.76;32.32
82035;BME280;71599;49.892;18.914;2023-07-24T11:47:06;97749.44;;;31.49;28.32
82035;BME280;71599;49.892;18.914;2023-07-24T11:52:07;97740.28;;;32.46;28.86
82035;BME280;71599;49.892;18.914;2023-07-24T11:57:14;97745.34;;;32.72;28.05
82035;BME280;71599;49.892;18.914;2023-07-24T12:02:18;97746.25;;;32.98;29.36
82035;BME280;71599;49.892;18.914;2023-07-24T12:07:19;97740.28;;;32.83;26.79
82035;BME280;71599;49.892;18.914;2023-07-24T12:12:20;97731.41;;;32.55;29.47
82035;BME280;71599;49.892;18.914;2023-07-24T12:17:22;97710.59;;;32.34;27.26
82035;BME280;71599;49.892;18.914;2023-07-24T12:22:23;97692.13;;;32.33;29.33
82035;BME280;71599;49.892;18.914;2023-07-24T12:27:24;97670.41;;;32.59;29.78
82035;BME280;71599;49.892;18.914;2023-07-24T12:32:27;97666.19;;;32.66;29.27
82035;BME280;71599;49.892;18.914;2023-07-24T12:37:28;97661.00;;;32.33;28.08
82035;BME280;71599;49.892;18.914;2023-07-24T12:42:29;97648.19;;;32.07;27.55
82035;BME280;71599;49.892;18.914;2023-07-24T12:47:31;97639.16;;;32.52;29.02
82035;BME280;71599;49.892;18.914;2023-07-24T12:52:33;97641.28;;;31.84;28.16
82035;BME280;71599;49.892;18.914;2023-07-24T12:57:34;97618.25;;;32.17;30.03
82035;BME280;71599;49.892;18.914;2023-07-24T13:02:36;97600.19;;;32.26;29.18
82035;BME280;71599;49.892;18.914;2023-07-24T13:07:37;97592.03;;;31.98;29.95
82035;BME280;71599;49.892;18.914;2023-07-24T13:12:38;97585.19;;;31.94;29.74
82035;BME280;71599;49.892;18.914;2023-07-24T13:17:40;97579.28;;;31.73;29.77
82035;BME280;71599;49.892;18.914;2023-07-24T13:22:41;97578.56;;;31.42;30.04
82035;BME280;71599;49.892;18.914;2023-07-24T13:27:42;97581.59;;;31.69;32.54
82035;BME280;71599;49.892;18.914;2023-07-24T13:32:44;97568.59;;;31.41;30.29
82035;BME280;71599;49.892;18.914;2023-07-24T13:37:45;97550.69;;;31.58;31.04
82035;BME280;71599;49.892;18.914;2023-07-24T13:42:46;97551.22;;;31.32;29.57
82035;BME280;71599;49.892;18.914;2023-07-24T13:47:49;97524.53;;;31.33;29.23
82035;BME280;71599;49.892;18.914;2023-07-24T13:52:50;97514.09;;;32.08;30.41
82035;BME280;71599;49.892;18.914;2023-07-24T13:57:51;97518.50;;;32.22;30.62
82035;BME280;71599;49.892;18.914;2023-07-24T14:02:54;97501.25;;;32.26;29.15
82035;BME280;71599;49.892;18.914;2023-07-24T14:07:55;97499.97;;;32.08;29.22
82035;BME280;71599;49.892;18.914;2023-07-24T14:12:56;97484.88;;;31.63;29.09
82035;BME280;71599;49.892;18.914;2023-07-24T14:17:58;97481.91;;;32.11;28.30
82035;BME280;71599;49.892;18.914;2023-07-24T14:22:59;97477.44;;;32.03;29.33
82035;BME280;71599;49.892;18.914;2023-07-24T14:28:00;97476.78;;;31.78;28.82
82035;BME280;71599;49.892;18.914;2023-07-24T14:33:03;97465.38;;;31.65;29.71
82035;BME280;71599;49.892;18.914;2023-07-24T14:38:04;97455.03;;;32.05;29.90
82035;BME280;71599;49.892;18.914;2023-07-24T14:43:05;97454.28;;;32.04;30.39
82035;BME280;71599;49.892;18.914;2023-07-24T14:48:07;97447.94;;;31.98;30.57
82035;BME280;71599;49.892;18.914;2023-07-24T14:53:08;97430.13;;;31.90;30.04
82035;BME280;71599;49.892;18.914;2023-07-24T14:58:09;97398.44;;;31.60;30.07
82035;BME280;71599;49.892;18.914;2023-07-24T15:03:11;97380.94;;;31.05;30.27
82035;BME280;71599;49.892;18.914;2023-07-24T15:08:13;97363.84;;;30.73;30.71
82035;BME280;71599;49.892;18.914;2023-07-24T15:13:14;97366.16;;;30.75;31.47
82035;BME280;71599;49.892;18.914;2023-07-24T15:18:16;97373.72;;;30.85;32.74
82035;BME280;71599;49.892;18.914;2023-07-24T15:23:17;97377.66;;;30.77;31.66
82035;BME280;71599;49.892;18.914;2023-07-24T15:28:18;97372.94;;;30.85;33.16
82035;BME280;71599;49.892;18.914;2023-07-24T15:33:20;97365.91;;;30.73;34.33
82035;BME280;71599;49.892;18.914;2023-07-24T15:38:21;97368.31;;;30.63;34.04
82035;BME280;71599;49.892;18.914;2023-07-24T15:43:22;97368.25;;;30.44;35.04
82035;BME280;71599;49.892;18.914;2023-07-24T15:48:25;97393.53;;;29.90;34.20
82035;BME280;71599;49.892;18.914;2023-07-24T15:53:26;97399.91;;;28.86;34.50
82035;BME280;71599;49.892;18.914;2023-07-24T15:58:27;97412.78;;;28.09;35.49
82035;BME280;71599;49.892;18.914;2023-07-24T16:03:29;97415.19;;;27.40;36.21
82035;BME280;71599;49.892;18.914;2023-07-24T16:08:30;97439.66;;;26.86;38.15
82035;BME280;71599;49.892;18.914;2023-07-24T16:13:31;97424.28;;;26.34;41.26
82035;BME280;71599;49.892;18.914;2023-07-24T16:18:33;97405.88;;;25.44;43.76
82035;BME280;71599;49.892;18.914;2023-07-24T16:23:35;97480.66;;;24.88;44.59
82035;BME280;71599;49.892;18.914;2023-07-24T16:28:36;97531.47;;;24.43;46.03
82035;BME280;71599;49.892;18.914;2023-07-24T16:33:38;97538.28;;;23.74;51.28
82035;BME280;71599;49.892;18.914;2023-07-24T16:38:39;97541.91;;;22.94;53.72
82035;BME280;71599;49.892;18.914;2023-07-24T16:43:41;97587.09;;;22.29;58.67
82035;BME280;71599;49.892;18.914;2023-07-24T16:48:43;97500.94;;;21.65;61.46
82035;BME280;71599;49.892;18.914;2023-07-24T16:53:44;97488.50;;;21.02;63.56
82035;BME280;71599;49.892;18.914;2023-07-24T16:58:45;97480.84;;;20.75;63.63
82035;BME280;71599;49.892;18.914;2023-07-24T17:03:48;97468.38;;;20.40;66.75
82035;BME280;71599;49.892;18.914;2023-07-24T17:08:48;97440.88;;;20.23;66.52
82035;BME280;71599;49.892;18.914;2023-07-24T17:13:49;97514.47;;;20.06;71.06
82035;BME280;71599;49.892;18.914;2023-07-24T17:18:52;97532.34;;;20.14;69.97
82035;BME280;71599;49.892;18.914;2023-07-24T17:23:53;97640.47;;;20.27;69.14
82035;BME280;71599;49.892;18.914;2023-07-24T17:28:54;97709.63;;;19.62;76.10
82035;BME280;71599;49.892;18.914;2023-07-24T17:33:56;97735.34;;;19.24;75.53
82035;BME280;71599;49.892;18.914;2023-07-24T17:38:57;97754.88;;;19.21;72.70
82035;BME280;71599;49.892;18.914;2023-07-24T17:43:58;97725.44;;;19.11;76.39
82035;BME280;71599;49.892;18.914;2023-07-24T17:49:01;97671.09;;;19.29;75.74
82035;BME280;71599;49.892;18.914;2023-07-24T17:54:02;97600.94;;;19.45;69.99
82035;BME280;71599;49.892;18.914;2023-07-24T17:59:03;97549.63;;;19.75;67.73
82035;BME280;71599;49.892;18.914;2023-07-24T18:04:05;97479.47;;;19.22;77.17
82035;BME280;71599;49.892;18.914;2023-07-24T18:09:06;97450.22;;;19.21;75.50
82035;BME280;71599;49.892;18.914;2023-07-24T18:14:07;97447.19;;;19.28;71.65
82035;BME280;71599;49.892;18.914;2023-07-24T18:19:09;97458.47;;;19.55;72.29
82035;BME280;71599;49.892;18.914;2023-07-24T18:24:10;97506.53;;;19.39;74.60
82035;BME280;71599;49.892;18.914;2023-07-24T18:29:12;97532.75;;;19.48;72.74
82035;BME280;71599;49.892;18.914;2023-07-24T18:34:14;97523.09;;;19.18;75.19
82035;BME280;71599;49.892;18.914;2023-07-24T18:39:15;97497.91;;;19.37;70.60
82035;BME280;71599;49.892;18.914;2023-07-24T18:44:16;97496.94;;;19.53;71.27
82035;BME280;71599;49.892;18.914;2023-07-24T18:49:19;97485.03;;;19.43;73.60
82035;BME280;71599;49.892;18.914;2023-07-24T18:54:20;97463.31;;;19.64;69.77
82035;BME280;71599;49.892;18.914;2023-07-24T18:59:21;97518.16;;;19.69;69.96
82035;BME280;71599;49.892;18.914;2023-07-24T19:04:23;97530.94;;;19.88;69.20
82035;BME280;71599;49.892;18.914;2023-07-24T19:09:24;97613.19;;;19.69;71.97
82035;BME280;71599;49.892;18.914;2023-07-24T19:14:25;97671.00;;;19.20;75.80
82035;BME280;71599;49.892;18.914;2023-07-24T19:19:28;97598.31;;;18.65;76.94
82035;BME280;71599;49.892;18.914;2023-07-24T19:24:29;97530.91;;;18.59;76.90
82035;BME280;71599;49.892;18.914;2023-07-24T19:29:30;97490.47;;;18.62;76.39
82035;BME280;71599;49.892;18.914;2023-07-24T19:34:32;97524.69;;;18.68;75.78
82035;BME280;71599;49.892;18.914;2023-07-24T19:39:33;97516.72;;;18.45;76.39
82035;BME280;71599;49.892;18.914;2023-07-24T19:44:34;97461.59;;;18.25;75.68
82035;BME280;71599;49.892;18.914;2023-07-24T19:49:39;97435.81;;;18.28;74.40
82035;BME280;71599;49.892;18.914;2023-07-24T19:54:40;97424.78;;;18.41;71.09
82035;BME280;71599;49.892;18.914;2023-07-24T19:59:41;97436.81;;;18.59;69.60
82035;BME280;71599;49.892;18.914;2023-07-24T20:04:44;97433.72;;;18.57;71.83
82035;BME280;71599;49.892;18.914;2023-07-24T20:09:45;97430.97;;;18.57;69.77
82035;BME280;71599;49.892;18.914;2023-07-24T20:14:49;97423.56;;;18.54;71.45
82035;BME280;71599;49.892;18.914;2023-07-24T20:19:51;97423.00;;;18.59;69.25
82035;BME280;71599;49.892;18.914;2023-07-24T20:24:52;97422.22;;;18.59;69.90
82035;BME280;71599;49.892;18.914;2023-07-24T20:29:53;97418.00;;;18.67;68.98
82035;BME280;71599;49.892;18.914;2023-07-24T20:34:56;97420.31;;;18.69;68.77
82035;BME280;71599;49.892;18.914;2023-07-24T20:39:57;97409.38;;;18.65;69.10
82035;BME280;71599;49.892;18.914;2023-07-24T20:44:58;97429.19;;;18.63;70.02
82035;BME280;71599;49.892;18.914;2023-07-24T20:50:00;97433.75;;;18.45;73.25
82035;BME280;71599;49.892;18.914;2023-07-24T20:55:01;97422.66;;;18.45;71.45
82035;BME280;71599;49.892;18.914;2023-07-24T21:00:03;97432.97;;;18.44;70.37
82035;BME280;71599;49.892;18.914;2023-07-24T21:05:07;97435.06;;;18.40;71.37
82035;BME280;71599;49.892;18.914;2023-07-24T21:10:08;97430.75;;;18.39;70.87
82035;BME280;71599;49.892;18.914;2023-07-24T21:15:10;97430.97;;;18.32;71.04
82035;BME280;71599;49.892;18.914;2023-07-24T21:20:12;97428.97;;;18.20;71.51
82035;BME280;71599;49.892;18.914;2023-07-24T21:25:13;97418.25;;;18.09;73.27
82035;BME280;71599;49.892;18.914;2023-07-24T21:30:14;97424.41;;;18.13;71.21
82035;BME280;71599;49.892;18.914;2023-07-24T21:35:19;97430.50;;;18.21;70.58
82035;BME280;71599;49.892;18.914;2023-07-24T21:40:20;97406.41;;;18.09;71.34
82035;BME280;71599;49.892;18.914;2023-07-24T21:45:20;97423.41;;;17.95;71.48
82035;BME280;71599;49.892;18.914;2023-07-24T21:50:23;97426.75;;;18.02;70.67
82035;BME280;71599;49.892;18.914;2023-07-24T21:55:24;97420.44;;;18.02;70.21
82035;BME280;71599;49.892;18.914;2023-07-24T22:00:25;97407.94;;;17.84;71.20
82035;BME280;71599;49.892;18.914;2023-07-24T22:05:27;97420.34;;;17.93;70.82
82035;BME280;71599;49.892;18.914;2023-07-24T22:10:28;97407.84;;;17.88;71.01
82035;BME280;71599;49.892;18.914;2023-07-24T22:15:29;97401.97;;;17.86;71.22
82035;BME280;71599;49.892;18.914;2023-07-24T22:20:31;97400.19;;;17.79;71.01
82035;BME280;71599;49.892;18.914;2023-07-24T22:25:32;97409.59;;;17.69;71.22
82035;BME280;71599;49.892;18.914;2023-07-24T22:30:33;97410.69;;;17.72;71.59
82035;BME280;71599;49.892;18.914;2023-07-24T22:35:36;97401.06;;;17.64;72.39
82035;BME280;71599;49.892;18.914;2023-07-24T22:40:37;97404.75;;;17.44;71.77
82035;BME280;71599;49.892;18.914;2023-07-24T22:45:38;97409.25;;;17.38;72.16
82035;BME280;71599;49.892;18.914;2023-07-24T22:50:40;97405.72;;;17.38;72.07
82035;BME280;71599;49.892;18.914;2023-07-24T22:55:41;97426.81;;;17.32;71.90
82035;BME280;71599;49.892;18.914;2023-07-24T23:00:42;97424.47;;;17.30;72.16
82035;BME280;71599;49.892;18.914;2023-07-24T23:05:44;97420.69;;;17.24;72.43
82035;BME280;71599;49.892;18.914;2023-07-24T23:10:47;97427.00;;;17.25;72.55
82035;BME280;71599;49.892;18.914;2023-07-24T23:15:48;97427.28;;;17.14;72.04
82035;BME280;71599;49.892;18.914;2023-07-24T23:20:51;97447.72;;;17.17;73.41
82035;BME280;71599;49.892;18.914;2023-07-24T23:25:51;97439.97;;;17.12;71.97
82035;BME280;71599;49.892;18.914;2023-07-24T23:30:52;97437.56;;;17.14;73.36
82035;BME280;71599;49.892;18.914;2023-07-24T23:35:55;97452.38;;;17.20;72.12
82035;BME280;71599;49.892;18.914;2023-07-24T23:40:56;97440.78;;;17.25;72.76
82035;BME280;71599;49.892;18.914;2023-07-24T23:45:57;97429.22;;;17.30;73.17
82035;BME280;71599;49.892;18.914;2023-07-24T23:50:59;97436.06;;;17.25;73.94
82035;BME280;71599;49.892;18.914;2023-07-24T23:56:01;97443.44;;;17.28;72.44
